Map

Track Data

SID SEASON NUMBER BASIN SUBBASIN NAME ISO_TIME NATURE LAT LON WMO_WIND WMO_PRES WMO_AGENCY TRACK_TYPE DIST2LAND LANDFALL IFLAG USA_AGENCY USA_ATCF_ID USA_LAT USA_LON USA_RECORD USA_STATUS USA_WIND USA_PRES USA_SSHS USA_R34_NE USA_R34_SE USA_R34_SW USA_R34_NW USA_R50_NE USA_R50_SE USA_R50_SW USA_R50_NW USA_R64_NE USA_R64_SE USA_R64_SW USA_R64_NW USA_POCI USA_ROCI USA_RMW USA_EYE TOKYO_LAT TOKYO_LON TOKYO_GRADE TOKYO_WIND TOKYO_PRES TOKYO_R50_DIR TOKYO_R50_LONG TOKYO_R50_SHORT TOKYO_R30_DIR TOKYO_R30_LONG TOKYO_R30_SHORT TOKYO_LAND CMA_LAT CMA_LON CMA_CAT CMA_WIND CMA_PRES HKO_LAT HKO_LON HKO_CAT HKO_WIND HKO_PRES NEWDELHI_LAT NEWDELHI_LON NEWDELHI_GRADE NEWDELHI_WIND NEWDELHI_PRES NEWDELHI_CI NEWDELHI_DP NEWDELHI_POCI REUNION_LAT REUNION_LON REUNION_TYPE REUNION_WIND REUNION_PRES REUNION_TNUM REUNION_CI REUNION_RMW REUNION_R34_NE REUNION_R34_SE REUNION_R34_SW REUNION_R34_NW REUNION_R50_NE REUNION_R50_SE REUNION_R50_SW REUNION_R50_NW REUNION_R64_NE REUNION_R64_SE REUNION_R64_SW REUNION_R64_NW BOM_LAT BOM_LON BOM_TYPE BOM_WIND BOM_PRES BOM_TNUM BOM_CI BOM_RMW BOM_R34_NE BOM_R34_SE BOM_R34_SW BOM_R34_NW BOM_R50_NE BOM_R50_SE BOM_R50_SW BOM_R50_NW BOM_R64_NE BOM_R64_SE BOM_R64_SW BOM_R64_NW BOM_ROCI BOM_POCI BOM_EYE BOM_POS_METHOD BOM_PRES_METHOD NADI_LAT NADI_LON NADI_CAT NADI_WIND NADI_PRES WELLINGTON_LAT WELLINGTON_LON WELLINGTON_WIND WELLINGTON_PRES DS824_LAT DS824_LON DS824_STAGE DS824_WIND DS824_PRES TD9636_LAT TD9636_LON TD9636_STAGE TD9636_WIND TD9636_PRES TD9635_LAT TD9635_LON TD9635_WIND TD9635_PRES TD9635_ROCI NEUMANN_LAT NEUMANN_LON NEUMANN_CLASS NEUMANN_WIND NEUMANN_PRES MLC_LAT MLC_LON MLC_CLASS MLC_WIND MLC_PRES USA_GUST BOM_GUST BOM_GUST_PER REUNION_GUST REUNION_GUST_PER USA_SEAHGT USA_SEARAD_NE USA_SEARAD_SE USA_SEARAD_SW USA_SEARAD_NW STORM_SPEED STORM_DIR
1918029S14061 1918 8 SI MM NOT_NAMED 1918-01-28 18:00:00 NR -13.8000 61.0000 main 787 763 __________O___ -1 -13.8000 61.0000 4 6 242
1918029S14061 1918 8 SI MM NOT_NAMED 1918-01-28 21:00:00 NR -13.9441 60.7144 main 763 734 __________P___ -1 -13.9441 60.7144 4 6 243
1918029S14061 1918 8 SI MM NOT_NAMED 1918-01-29 00:00:00 NR -14.0804 60.4429 main 730 711 __________P___ -1 -14.0804 60.4429 4 6 243
1918029S14061 1918 8 SI MM NOT_NAMED 1918-01-29 03:00:00 NR -14.2015 60.1999 main 711 693 __________P___ -1 -14.2015 60.1999 4 5 243
1918029S14061 1918 8 SI MM NOT_NAMED 1918-01-29 06:00:00 TS -14.3000 60.0000 main 693 679 _________OO___ -1 -14.3000 60.0000 TC 65 -14.3000 60.0000 4 4 243
1918029S14061 1918 8 SI MM NOT_NAMED 1918-01-29 09:00:00 TS -14.3643 59.8693 main 679 675 _________PP___ -1 -14.3500 59.9025 TC 65 -14.3714 59.8527 4 3 243
1918029S14061 1918 8 SI MM NOT_NAMED 1918-01-29 12:00:00 TS -14.4128 59.7699 main 675 661 _________OP___ -1 -14.4000 59.8000 TC 65 -14.4223 59.7473 4 2 243
1918029S14061 1918 8 SI MM NOT_NAMED 1918-01-29 15:00:00 TS -14.4560 59.6804 main 661 658 _________PP___ -1 -14.4500 59.6925 TC 65 -14.4621 59.6683 4 2 242
1918029S14061 1918 8 SI MM NOT_NAMED 1918-01-29 18:00:00 TS -14.5000 59.6000 main 658 655 _________OO___ -1 -14.5000 59.6000 TC 65 -14.5000 59.6000 4 2 236
1918029S14061 1918 8 SI MM NOT_NAMED 1918-01-29 21:00:00 TS -14.5520 59.5339 main 644 644 _________PP___ -1 -14.5500 59.5500 TC 65 -14.5540 59.5178 4 2 231
1918029S14061 1918 8 SI MM NOT_NAMED 1918-01-30 00:00:00 TS -14.6037 59.4712 main 644 630 _________OP___ -1 -14.6000 59.5000 TC 65 -14.6075 59.4425 4 2 235
1918029S14061 1918 8 SI MM NOT_NAMED 1918-01-30 03:00:00 TS -14.6536 59.3855 main 630 627 _________PP___ -1 -14.6500 59.4000 TC 65 -14.6572 59.3709 4 2 240
1918029S14061 1918 8 SI MM NOT_NAMED 1918-01-30 06:00:00 TS -14.7000 59.3000 main 627 624 _________OO___ -1 -14.7000 59.3000 TC 65 -14.7000 59.3000 4 2 238
1918029S14061 1918 8 SI MM NOT_NAMED 1918-01-30 09:00:00 TS -14.7428 59.2395 main 624 614 _________PP___ -1 -14.7575 59.2500 TC 65 -14.7281 59.2290 4 1 238
1918029S14061 1918 8 SI MM NOT_NAMED 1918-01-30 12:00:00 TS -14.7750 59.1787 main 614 611 _________OP___ -1 -14.8000 59.2000 TC 65 -14.7500 59.1575 4 1 253
1918029S14061 1918 8 SI MM NOT_NAMED 1918-01-30 15:00:00 TS -14.7859 59.0948 main 611 608 _________PP___ -1 -14.8000 59.1075 TC 65 -14.7719 59.0822 4 2 262
1918029S14061 1918 8 SI MM NOT_NAMED 1918-01-30 18:00:00 TS -14.8000 59.0000 main 608 606 _________OO___ -1 -14.8000 59.0000 TC 65 -14.8000 59.0000 4 2 252
1918029S14061 1918 8 SI MM NOT_NAMED 1918-01-30 21:00:00 TS -14.8447 58.9016 main 606 593 _________PP___ -1 -14.8425 58.9000 TC 65 -14.8469 58.9032 4 2 243
1918029S14061 1918 8 SI MM NOT_NAMED 1918-01-31 00:00:00 TS -14.9000 58.8000 main 593 580 _________OP___ -1 -14.9000 58.8000 TC 65 -14.9000 58.8000 4 2 241
1918029S14061 1918 8 SI MM NOT_NAMED 1918-01-31 03:00:00 TS -14.9553 58.6985 main 580 578 _________PP___ -1 -14.9575 58.7000 TC 65 -14.9531 58.6969 4 2 243
1918029S14061 1918 8 SI MM NOT_NAMED 1918-01-31 06:00:00 TS -15.0000 58.6000 main 578 576 _________OO___ -1 -15.0000 58.6000 TC 65 -15.0000 58.6000 4 2 252
1918029S14061 1918 8 SI MM NOT_NAMED 1918-01-31 09:00:00 TS -15.0140 58.5072 main 576 575 _________PP___ -1 -15.0000 58.4925 TC 65 -15.0281 58.5218 4 2 261
1918029S14061 1918 8 SI MM NOT_NAMED 1918-01-31 12:00:00 TS -15.0250 58.4250 main 575 564 _________OP___ -1 -15.0000 58.4000 TC 65 -15.0500 58.4499 4 1 252
1918029S14061 1918 8 SI MM NOT_NAMED 1918-01-31 15:00:00 TS -15.0572 58.3640 main 564 563 _________PP___ -1 -15.0425 58.3500 TC 65 -15.0718 58.3781 4 1 238
1918029S14061 1918 8 SI MM NOT_NAMED 1918-01-31 18:00:00 TS -15.1000 58.3000 main 563 561 _________OO___ -1 -15.1000 58.3000 TC 65 -15.1000 58.3000 4 2 240
1918029S14061 1918 8 SI MM NOT_NAMED 1918-01-31 21:00:00 TS -15.1464 58.2073 main 561 549 _________PP___ -1 -15.1500 58.2075 TC 65 -15.1428 58.2072 4 2 243
1918029S14061 1918 8 SI MM NOT_NAMED 1918-02-01 00:00:00 TS -15.1962 58.1038 main 549 549 _________OP___ -1 -15.2000 58.1000 TC 65 -15.1925 58.1075 4 2 243
1918029S14061 1918 8 SI MM NOT_NAMED 1918-02-01 03:00:00 TS -15.2480 58.0020 main 549 537 _________PP___ -1 -15.2500 58.0000 TC 65 -15.2459 58.0041 4 2 242
1918029S14061 1918 8 SI MM NOT_NAMED 1918-02-01 06:00:00 TS -15.3000 57.9000 main 537 537 _________OO___ -1 -15.3000 57.9000 TC 65 -15.3000 57.9000 4 2 243
1918029S14061 1918 8 SI MM NOT_NAMED 1918-02-01 09:00:00 TS -15.3480 57.8000 main 537 525 _________PP___ -1 -15.3500 57.8000 TC 65 -15.3459 57.8000 4 2 244
1918029S14061 1918 8 SI MM NOT_NAMED 1918-02-01 12:00:00 TS -15.3962 57.7000 main 525 525 _________OP___ -1 -15.4000 57.7000 TC 65 -15.3925 57.7000 4 2 243
1918029S14061 1918 8 SI MM NOT_NAMED 1918-02-01 15:00:00 TS -15.4464 57.6000 main 525 514 _________PP___ -1 -15.4500 57.6000 TC 65 -15.4428 57.6000 4 2 242
1918029S14061 1918 8 SI MM NOT_NAMED 1918-02-01 18:00:00 TS -15.5000 57.5000 main 514 503 _________OO___ -1 -15.5000 57.5000 TC 65 -15.5000 57.5000 4 2 240
1918029S14061 1918 8 SI MM NOT_NAMED 1918-02-01 21:00:00 TS -15.5572 57.4040 main 503 503 _________PP___ -1 -15.5425 57.4000 TC 65 -15.5718 57.4081 4 2 236
1918029S14061 1918 8 SI MM NOT_NAMED 1918-02-02 00:00:00 TS -15.6250 57.3075 main 503 492 _________OP___ -1 -15.6000 57.3000 TC 65 -15.6499 57.3150 4 2 230
1918029S14061 1918 8 SI MM NOT_NAMED 1918-02-02 03:00:00 TS -15.7140 57.2109 main 493 482 _________PP___ -1 -15.7000 57.2075 TC 65 -15.7281 57.2144 4 3 229
1918029S14061 1918 8 SI MM NOT_NAMED 1918-02-02 06:00:00 TS -15.8000 57.1000 main 482 472 _________OO___ -1 -15.8000 57.1000 TC 65 -15.8000 57.1000 4 3 240
1918029S14061 1918 8 SI MM NOT_NAMED 1918-02-02 09:00:00 TS -15.8553 56.9589 main 472 472 _________PP___ -1 -15.8575 56.9575 TC 65 -15.8532 56.9603 4 3 251
1918029S14061 1918 8 SI MM NOT_NAMED 1918-02-02 12:00:00 TS -15.9000 56.8037 main 475 475 _________OP___ -1 -15.9000 56.8000 TC 65 -15.9000 56.8074 4 3 253
1918029S14061 1918 8 SI MM NOT_NAMED 1918-02-02 15:00:00 TS -15.9484 56.6504 main 477 468 _________PP___ -1 -15.9500 56.6500 TC 65 -15.9469 56.6509 4 3 251
1918029S14061 1918 8 SI MM NOT_NAMED 1918-02-02 18:00:00 TS -16.0000 56.5000 main 470 462 _________OO___ -1 -16.0000 56.5000 TC 65 -16.0000 56.5000 4 3 249
1918029S14061 1918 8 SI MM NOT_NAMED 1918-02-02 21:00:00 TS -16.0551 56.3572 main 462 462 _________PP___ -1 -16.0425 56.3425 TC 65 -16.0678 56.3718 4 3 245
1918029S14061 1918 8 SI MM NOT_NAMED 1918-02-03 00:00:00 TS -16.1212 56.2250 main 468 457 _________OP___ -1 -16.1000 56.2000 TC 65 -16.1424 56.2500 4 3 236
1918029S14061 1918 8 SI MM NOT_NAMED 1918-02-03 03:00:00 TS -16.2104 56.1140 main 460 450 _________PP___ -1 -16.2000 56.1000 TC 65 -16.2209 56.1281 4 3 230
1918029S14061 1918 8 SI MM NOT_NAMED 1918-02-03 06:00:00 TS -16.3000 56.0000 main 453 447 _________OO___ -1 -16.3000 56.0000 TC 65 -16.3000 56.0000 4 3 239
1918029S14061 1918 8 SI MM NOT_NAMED 1918-02-03 09:00:00 TS -16.3605 55.8573 main 447 447 _________PP___ -1 -16.3500 55.8575 TC 65 -16.3709 55.8571 4 2 253
1918029S14061 1918 8 SI MM NOT_NAMED 1918-02-03 12:00:00 TS -16.3522 55.8255 main 451 451 _________OP___ -1 -16.4000 55.7000 TC 65 -16.4425 55.7074 4 1 249
1918029S14061 1918 8 SI MM NOT_NAMED 1918-02-03 15:00:00 TS -16.4052 55.7333 main 455 445 _________PP___ -1 -16.4925 55.5500 TC 65 -16.5178 55.5540 4 3 238
1918029S14061 1918 8 SI MM NOT_NAMED 1918-02-03 18:00:00 TS -16.4931 55.5972 main 449 444 _________OO___ -1 -16.6000 55.4000 TC 65 -16.6000 55.4000 4 3 236
1918029S14061 1918 8 SI MM NOT_NAMED 1918-02-03 21:00:00 TS -16.5972 55.4405 main 449 440 _________PP___ -1 -16.7000 55.2500 TC 65 -16.6845 55.2701 4 4 235
1918029S14061 1918 8 SI MM NOT_NAMED 1918-02-04 00:00:00 TS -16.7161 55.2653 main 445 441 _________OP___ -1 -16.8000 55.1000 TC 65 -16.7772 55.1372 4 4 234
1918029S14061 1918 8 SI MM NOT_NAMED 1918-02-04 03:00:00 TS -16.8471 55.0863 main 447 438 _________PP___ -1 -16.8924 54.9649 TC 65 -16.8814 54.9857 4 5 233
1918029S14061 1918 8 SI MM NOT_NAMED 1918-02-04 06:00:00 TS -16.9905 54.8819 main 442 439 _________OO___ -1 -17.0000 54.8000 TC 65 -17.0000 54.8000 4 5 236
1918029S14061 1918 8 SI MM NOT_NAMED 1918-02-04 09:00:00 TS -17.1429 54.6331 main 442 424 _________PP___ -1 -17.1425 54.5725 TC 65 -17.1357 54.5570 4 6 239
1918029S14061 1918 8 SI MM NOT_NAMED 1918-02-04 12:00:00 TS -17.2963 54.3450 main 427 418 _________OP___ -1 -17.3000 54.3000 TC 65 -17.2852 54.2801 4 7 242
1918029S14061 1918 8 SI MM NOT_NAMED 1918-02-04 15:00:00 TS -17.4488 54.0282 main 425 411 _________PP___ -1 -17.4500 54.0000 TC 65 -17.4420 53.9882 4 7 244
1918029S14061 1918 8 SI MM NOT_NAMED 1918-02-04 18:00:00 TS -17.6000 53.7037 main 413 390 _________OO___ -1 -17.6000 53.7000 TC 65 -17.6000 53.7000 4 7 243
1918029S14061 1918 8 SI MM NOT_NAMED 1918-02-04 21:00:00 TS -17.7491 53.4015 main 390 371 _________PP___ -1 -17.7499 53.4424 TC 65 -17.7497 53.4588 4 6 242
1918029S14061 1918 8 SI MM NOT_NAMED 1918-02-05 00:00:00 TS -17.8999 53.1055 main 371 345 _________OP___ -1 -17.9000 53.2000 TC 65 -17.8996 53.2221 4 6 242
1918029S14061 1918 8 SI MM NOT_NAMED 1918-02-05 03:00:00 TS -18.0514 52.8133 main 349 322 _________PP___ -1 -18.0499 52.9649 TC 65 -18.0497 52.9744 4 6 241
1918029S14061 1918 8 SI MM NOT_NAMED 1918-02-05 06:00:00 TS -18.2087 52.5124 main 322 293 _________OO___ -1 -18.2000 52.7000 TC 65 -18.2000 52.7000 4 7 241
1918029S14061 1918 8 SI MM NOT_NAMED 1918-02-05 09:00:00 TS -18.3755 52.1908 main 296 266 _________PP___ -1 -18.3500 52.3650 TC 65 -18.3461 52.3706 4 7 242
1918029S14061 1918 8 SI MM NOT_NAMED 1918-02-05 12:00:00 TS -18.5482 51.8537 main 266 228 _________OP___ -1 -18.5000 52.0000 TC 65 -18.4927 52.0149 4 7 242
1918029S14061 1918 8 SI MM NOT_NAMED 1918-02-05 15:00:00 TS -18.7224 51.4992 main 228 205 _________PP___ -1 -18.6500 51.6425 TC 65 -18.6429 51.6518 4 8 242
1918029S14061 1918 8 SI MM NOT_NAMED 1918-02-05 18:00:00 TS -18.9000 51.1463 main 195 174 _________OO___ -1 -18.8000 51.3000 TC 65 -18.8000 51.3000 4 7 241
1918029S14061 1918 8 SI MM NOT_NAMED 1918-02-05 21:00:00 TS -19.0780 50.8192 main 174 147 _________PP___ -1 -18.9424 50.9924 TC 65 -18.9591 51.0095 4 7 239
1918029S14061 1918 8 SI MM NOT_NAMED 1918-02-06 00:00:00 TS -19.2567 50.5073 main 150 123 _________OP___ -1 -19.1000 50.7000 TC 65 -19.1266 50.7292 4 7 238
1918029S14061 1918 8 SI MM NOT_NAMED 1918-02-06 03:00:00 TS -19.4306 50.2132 main 123 104 _________PP___ -1 -19.2848 50.4223 TC 65 -19.3059 50.4343 4 7 238
1918029S14061 1918 8 SI MM NOT_NAMED 1918-02-06 06:00:00 TS -19.6142 49.9105 main 104 83 _________OO___ -1 -19.5000 50.1000 TC 65 -19.5000 50.1000 4 7 237
1918029S14061 1918 8 SI MM NOT_NAMED 1918-02-06 09:00:00 TS -19.8184 49.5761 main 83 41 _________PP___ -1 -19.7500 49.6726 TC 65 -19.7024 49.7050 4 8 237
1918029S14061 1918 8 SI MM NOT_NAMED 1918-02-06 12:00:00 TS -20.0299 49.2167 main 41 20 _________OP___ -1 -20.0000 49.2000 TC 65 -19.9198 49.2670 4 8 239
1918029S14061 1918 8 SI MM NOT_NAMED 1918-02-06 15:00:00 TS -20.2275 48.8430 main 10 0 _________PP___ -1 -20.1998 48.7647 TC 65 -20.1523 48.7954 4 8 241
1918029S14061 1918 8 SI MM NOT_NAMED 1918-02-06 18:00:00 TS -20.4262 48.4448 main 0 0 _________OO___ -1 -20.4000 48.3000 TC 65 -20.4000 48.3000 4 9 243
1918029S14061 1918 8 SI MM NOT_NAMED 1918-02-06 21:00:00 TS -20.6323 48.0024 main 0 0 _________PP___ -1 -20.6350 47.7574 TC 65 -20.6777 47.7406 4 10 242
1918029S14061 1918 8 SI MM NOT_NAMED 1918-02-07 00:00:00 TS -20.8666 47.5422 main 0 0 _________OP___ -1 -20.9000 47.2000 TC 65 -20.9662 47.1689 4 10 240
1918029S14061 1918 8 SI MM NOT_NAMED 1918-02-07 03:00:00 TS -21.1464 47.0642 main 0 0 _________PP___ -1 -21.2151 46.6478 TC 65 -21.2465 46.6375 4 10 236
1918029S14061 1918 8 SI MM NOT_NAMED 1918-02-07 06:00:00 TS -21.4384 46.6348 main 0 0 _________OO___ -1 -21.5000 46.2000 TC 65 -21.5000 46.2000 4 9 232
1918029S14061 1918 8 SI MM NOT_NAMED 1918-02-07 09:00:00 TS -21.6941 46.3034 main 0 0 _________PP___ -1 -21.6647 45.9471 TC 65 -21.6906 45.8990 4 7 225
1918029S14061 1918 8 SI MM NOT_NAMED 1918-02-07 12:00:00 TS -21.9641 46.0747 main 0 0 _________OP___ -1 -21.8000 45.8000 TC 65 -21.8564 45.6989 4 7 210
1918029S14061 1918 8 SI MM NOT_NAMED 1918-02-07 15:00:00 TS -22.2832 45.9305 main 0 0 _________PP___ -1 -21.9850 45.6350 TC 65 -22.0191 45.5744 4 7 201
1918029S14061 1918 8 SI MM NOT_NAMED 1918-02-07 18:00:00 TS -22.5738 45.8262 main 0 0 _________OO___ -1 -22.2000 45.5000 TC 65 -22.2000 45.5000 4 7 211
1918029S14061 1918 8 SI MM NOT_NAMED 1918-02-07 21:00:00 TS -22.8424 45.5667 main 0 0 _________PP___ -1 -22.4425 45.3701 TC 65 -22.3874 45.3640 4 7 226
1918029S14061 1918 8 SI MM NOT_NAMED 1918-02-08 00:00:00 TS -23.0401 45.3088 main 0 0 _________OP___ -1 -22.7000 45.3000 TC 65 -22.6018 45.2796 4 6 240
1918029S14061 1918 8 SI MM NOT_NAMED 1918-02-08 03:00:00 TS -23.1264 45.0249 main 0 0 _________PP___ -1 -22.9049 45.2829 TC 65 -22.8653 45.2803 4 5 201
1918029S14061 1918 8 SI MM NOT_NAMED 1918-02-08 06:00:00 TS -23.4667 45.1333 main 0 0 _________OO___ -1 -23.2000 45.4000 TC 65 -23.2000 45.4000 4 8 154
1918029S14061 1918 8 SI MM NOT_NAMED 1918-02-08 09:00:00 TS -23.8771 45.4171 main 0 0 _________PP___ -1 -23.7200 45.6897 TC 65 -23.6531 45.6758 4 11 145
1918029S14061 1918 8 SI MM NOT_NAMED 1918-02-08 12:00:00 TS -24.3286 45.7849 main 0 0 _________OP___ -1 -24.3000 46.1000 TC 65 -24.1709 46.0697 4 11 141
1918029S14061 1918 8 SI MM NOT_NAMED 1918-02-08 15:00:00 TS -24.7492 46.1879 main 0 0 _________PP___ -1 -24.7800 46.5426 TC 65 -24.7031 46.5291 4 11 137
1918029S14061 1918 8 SI MM NOT_NAMED 1918-02-08 18:00:00 TS -25.1333 46.6000 main 0 0 _________OO___ -1 -25.2000 47.0000 TC 65 -25.2000 47.0000 4 10 135
1918029S14061 1918 8 SI MM NOT_NAMED 1918-02-08 21:00:00 TS -25.4689 46.9834 main 39 39 _________PP___ -1 -25.5648 47.4080 TC 65 -25.6241 47.4381 4 9 133
1918029S14061 1918 8 SI MM NOT_NAMED 1918-02-09 00:00:00 TS -25.7684 47.3493 main 83 83 _________OP___ -1 -25.9000 47.8000 TC 65 -25.9848 47.8433 4 9 132
1918029S14061 1918 8 SI MM NOT_NAMED 1918-02-09 03:00:00 TS -26.0538 47.7087 main 131 131 _________PP___ -1 -26.2453 48.1969 TC 65 -26.3032 48.2267 4 9 131
1918029S14061 1918 8 SI MM NOT_NAMED 1918-02-09 06:00:00 TS -26.3333 48.0667 main 173 _________OO___ -1 -26.6000 48.6000 TC 65 -26.6000 48.6000 4 9 131

About IBTrACS Database

This database is a web-friendly format of International Best Track Archive for Climate Stewardship (IBTrACS), a global best track data archive curated by NOAA dating back to 1842.

Updated: 2021-10-08